<?xml version='1.0' encoding='UTF-8'?><gpx version="1.1" creator="JPX - https://github.com/jenetics/jpx" xmlns="http://www.topografix.com/GPX/1/1"><trk><trkseg><trkpt lat="41.4837762411506" lon="-8.207796944099089"><ele>448.0</ele><time>2026-04-19T11:25:16.999Z</time></trkpt><trkpt lat="41.483830789528874" lon="-8.207859425006019"><ele>447.99999999999994</ele><time>2026-04-19T11:25:17.999Z</time></trkpt><trkpt lat="41.48389273639357" lon="-8.20794198400868"><ele>447.99999999999994</ele><time>2026-04-19T11:25:18.999Z</time></trkpt><trkpt lat="41.4839563686887" lon="-8.208051877621072"><ele>448.0</ele><time>2026-04-19T11:25:20.999Z</time></trkpt><trkpt lat="41.484037161504865" lon="-8.208131470418872"><ele>448.0</ele><time>2026-04-19T11:25:22.999Z</time></trkpt><trkpt lat="41.48410412261961" lon="-8.208208801788196"><ele>451.0</ele><time>2026-04-19T11:25:25.999Z</time></trkpt><trkpt lat="41.484145951660444" lon="-8.208272625305087"><ele>453.99999999999994</ele><time>2026-04-19T11:25:27.999Z</time></trkpt><trkpt lat="41.484247417332874" lon="-8.208412289504702"><ele>456.99999999999994</ele><time>2026-04-19T11:25:29.999Z</time></trkpt><trkpt lat="41.484299325215666" lon="-8.20847653479748"><ele>460.0</ele><time>2026-04-19T11:25:30.999Z</time></trkpt><trkpt lat="41.48439921259255" lon="-8.2085888460731"><ele>463.0</ele><time>2026-04-19T11:25:32.999Z</time></trkpt><trkpt lat="41.48443695245623" lon="-8.208465672813222"><ele>463.00000000000006</ele><time>2026-04-19T11:25:34.999Z</time></trkpt><trkpt lat="41.4844859760876" lon="-8.208388394023695"><ele>463.0</ele><time>2026-04-19T11:25:37.999Z</time></trkpt><trkpt lat="41.48449143798363" lon="-8.208277622589097"><ele>463.0</ele><time>2026-04-19T11:25:41.999Z</time></trkpt><trkpt lat="41.484499626449995" lon="-8.208194062004436"><ele>463.0</ele><time>2026-04-19T11:25:47.999Z</time></trkpt><trkpt lat="41.48451243221738" lon="-8.208100028049715"><ele>463.00000000000006</ele><time>2026-04-19T11:25:50.999Z</time></trkpt><trkpt lat="41.48453700304154" lon="-8.208022246786939"><ele>463.0</ele><time>2026-04-19T11:25:53.999Z</time></trkpt><trkpt lat="41.484565320068235" lon="-8.207891921961084"><ele>460.50000000000006</ele><time>2026-04-19T11:25:57.999Z</time></trkpt><trkpt lat="41.48456891551463" lon="-8.207796070470696"><ele>458.0</ele><time>2026-04-19T11:26:00.999Z</time></trkpt><trkpt lat="41.48456697598031" lon="-8.207711632594293"><ele>455.5</ele><time>2026-04-19T11:26:02.999Z</time></trkpt><trkpt lat="41.4845610355811" lon="-8.207623739191416"><ele>453.0</ele><time>2026-04-19T11:26:04.999Z</time></trkpt><trkpt lat="41.48456920128138" lon="-8.207492733976352"><ele>450.50000000000006</ele><time>2026-04-19T11:26:06.999Z</time></trkpt><trkpt lat="41.48457875721672" lon="-8.20735531696158"><ele>448.0</ele><time>2026-04-19T11:26:08.999Z</time></trkpt><trkpt lat="41.484596033606984" lon="-8.207266312829322"><ele>447.33333333333337</ele><time>2026-04-19T11:26:10.999Z</time></trkpt><trkpt lat="41.48459316127135" lon="-8.2071536135182"><ele>446.6666666666667</ele><time>2026-04-19T11:26:12.999Z</time></trkpt><trkpt lat="41.484618126513546" lon="-8.207036403092404"><ele>446.0</ele><time>2026-04-19T11:26:15.999Z</time></trkpt><trkpt lat="41.48462033421052" lon="-8.206951961011272"><ele>445.33333333333337</ele><time>2026-04-19T11:26:17.999Z</time></trkpt><trkpt lat="41.48463382497516" lon="-8.206849201253853"><ele>444.6666666666667</ele><time>2026-04-19T11:26:18.999Z</time></trkpt><trkpt lat="41.484661275874" lon="-8.206758451038642"><ele>444.0</ele><time>2026-04-19T11:26:19.999Z</time></trkpt><trkpt lat="41.484685551927235" lon="-8.206637763681039"><ele>445.2</ele><time>2026-04-19T11:26:21.999Z</time></trkpt><trkpt lat="41.484673952250404" lon="-8.206495358536847"><ele>446.4</ele><time>2026-04-19T11:26:24.999Z</time></trkpt><trkpt lat="41.48465979674713" lon="-8.206369680155271"><ele>447.6</ele><time>2026-04-19T11:26:26.999Z</time></trkpt><trkpt lat="41.48464202544851" lon="-8.206270365558954"><ele>448.8</ele><time>2026-04-19T11:26:28.999Z</time></trkpt><trkpt lat="41.48458115539356" lon="-8.206161423701303"><ele>450.0</ele><time>2026-04-19T11:26:30.999Z</time></trkpt><trkpt lat="41.48451071923987" lon="-8.206085612277105"><ele>450.0</ele><time>2026-04-19T11:26:32.999Z</time></trkpt><trkpt lat="41.48441675364307" lon="-8.206104417052089"><ele>450.0</ele><time>2026-04-19T11:26:35.999Z</time></trkpt><trkpt lat="41.484329259675555" lon="-8.206101567797933"><ele>450.0</ele><time>2026-04-19T11:26:38.999Z</time></trkpt><trkpt lat="41.484267517072105" lon="-8.2060317068047"><ele>450.0</ele><time>2026-04-19T11:26:40.999Z</time></trkpt><trkpt lat="41.48424145897659" lon="-8.205935116389462"><ele>450.0</ele><time>2026-04-19T11:26:42.999Z</time></trkpt><trkpt lat="41.4842385103652" lon="-8.205782869831598"><ele>450.0</ele><time>2026-04-19T11:26:44.999Z</time></trkpt><trkpt lat="41.48423212922197" lon="-8.205667663457128"><ele>450.0</ele><time>2026-04-19T11:26:46.999Z</time></trkpt><trkpt lat="41.48418584440861" lon="-8.205584685028036"><ele>450.0</ele><time>2026-04-19T11:26:48.999Z</time></trkpt><trkpt lat="41.48413476568102" lon="-8.205504857519546"><ele>450.0</ele><time>2026-04-19T11:26:52.999Z</time></trkpt><trkpt lat="41.48407232527611" lon="-8.205424407903276"><ele>450.0</ele><time>2026-04-19T11:26:55.999Z</time></trkpt><trkpt lat="41.484007605169154" lon="-8.205354055832853"><ele>450.0</ele><time>2026-04-19T11:26:57.999Z</time></trkpt><trkpt lat="41.483961856149314" lon="-8.205270221763369"><ele>449.0</ele><time>2026-04-19T11:27:01.999Z</time></trkpt><trkpt lat="41.48400183433764" lon="-8.205184994223671"><ele>448.0</ele><time>2026-04-19T11:27:04.999Z</time></trkpt><trkpt lat="41.484106434526105" lon="-8.205188298850077"><ele>447.0</ele><time>2026-04-19T11:27:08.999Z</time></trkpt><trkpt lat="41.4841425313868" lon="-8.205090388068694"><ele>446.0</ele><time>2026-04-19T11:27:11.999Z</time></trkpt><trkpt lat="41.48416429408883" lon="-8.205006620411815"><ele>445.0</ele><time>2026-04-19T11:27:14.999Z</time></trkpt><trkpt lat="41.48419500333601" lon="-8.204901093976213"><ele>444.0</ele><time>2026-04-19T11:27:20.999Z</time></trkpt><trkpt lat="41.48423356523527" lon="-8.204814185234806"><ele>442.0</ele><time>2026-04-19T11:27:23.999Z</time></trkpt><trkpt lat="41.4842961514153" lon="-8.20473084288406"><ele>440.0</ele><time>2026-04-19T11:27:26.999Z</time></trkpt><trkpt lat="41.48432260432457" lon="-8.204648690987034"><ele>438.0</ele><time>2026-04-19T11:27:29.999Z</time></trkpt><trkpt lat="41.4843374496964" lon="-8.20455667054028"><ele>436.0</ele><time>2026-04-19T11:27:32.999Z</time></trkpt><trkpt lat="41.48440617851024" lon="-8.204520157500239"><ele>434.0</ele><time>2026-04-19T11:27:36.999Z</time></trkpt><trkpt lat="41.48440585475215" lon="-8.20441883254061"><ele>432.0</ele><time>2026-04-19T11:27:40.999Z</time></trkpt><trkpt lat="41.48433671742246" lon="-8.204378695028169"><ele>432.0</ele><time>2026-04-19T11:27:44.999Z</time></trkpt><trkpt lat="41.48432600735117" lon="-8.204285395658612"><ele>432.0</ele><time>2026-04-19T11:27:47.999Z</time></trkpt><trkpt lat="41.48429755099339" lon="-8.204365197253818"><ele>432.0</ele><time>2026-04-19T11:28:06Z</time></trkpt><trkpt lat="41.48438611806232" lon="-8.204402140370833"><ele>432.0</ele><time>2026-04-19T11:28:10Z</time></trkpt><trkpt lat="41.484451171811614" lon="-8.20438183243108"><ele>432.0</ele><time>2026-04-19T11:28:12Z</time></trkpt><trkpt lat="41.4845118804276" lon="-8.204418344348513"><ele>432.0</ele><time>2026-04-19T11:28:14Z</time></trkpt><trkpt lat="41.48457965127374" lon="-8.204543705689895"><ele>431.8333333333333</ele><time>2026-04-19T11:28:16Z</time></trkpt><trkpt lat="41.484643426570294" lon="-8.204628565708727"><ele>431.66666666666663</ele><time>2026-04-19T11:28:18Z</time></trkpt><trkpt lat="41.48467142538536" lon="-8.204706486028147"><ele>431.5</ele><time>2026-04-19T11:28:20Z</time></trkpt><trkpt lat="41.48471406064562" lon="-8.204773769705422"><ele>431.3333333333333</ele><time>2026-04-19T11:28:22Z</time></trkpt><trkpt lat="41.484768716444" lon="-8.204832796489438"><ele>431.16666666666663</ele><time>2026-04-19T11:28:24Z</time></trkpt><trkpt lat="41.48482888782289" lon="-8.204903732797067"><ele>431.0</ele><time>2026-04-19T11:28:28Z</time></trkpt><trkpt lat="41.484906702438664" lon="-8.204918713235156"><ele>431.0</ele><time>2026-04-19T11:28:32Z</time></trkpt><trkpt lat="41.48497166756294" lon="-8.204930870998197"><ele>431.0</ele><time>2026-04-19T11:28:43Z</time></trkpt><trkpt lat="41.484984413145554" lon="-8.204840648133876"><ele>431.0</ele><time>2026-04-19T11:28:48Z</time></trkpt><trkpt lat="41.48497004191865" lon="-8.20475386986551"><ele>431.0</ele><time>2026-04-19T11:28:51Z</time></trkpt><trkpt lat="41.48497167668061" lon="-8.204663674441985"><ele>431.0</ele><time>2026-04-19T11:28:54Z</time></trkpt><trkpt lat="41.485011705217644" lon="-8.204576519114166"><ele>431.0</ele><time>2026-04-19T11:28:57Z</time></trkpt><trkpt lat="41.48504320181457" lon="-8.204491917905795"><ele>431.0</ele><time>2026-04-19T11:29:02Z</time></trkpt><trkpt lat="41.48502711974668" lon="-8.204399290577017"><ele>430.99999999999994</ele><time>2026-04-19T11:29:05Z</time></trkpt><trkpt lat="41.485001788969235" lon="-8.204318152967891"><ele>431.0</ele><time>2026-04-19T11:29:07Z</time></trkpt><trkpt lat="41.48499009211799" lon="-8.204219981777644"><ele>431.0</ele><time>2026-04-19T11:29:10Z</time></trkpt><trkpt lat="41.484968501651565" lon="-8.204099957411238"><ele>431.0</ele><time>2026-04-19T11:29:13Z</time></trkpt><trkpt lat="41.48499453037076" lon="-8.203994236975179"><ele>430.99999999999994</ele><time>2026-04-19T11:29:17Z</time></trkpt><trkpt lat="41.48500478996294" lon="-8.203904126194612"><ele>431.0</ele><time>2026-04-19T11:29:20Z</time></trkpt><trkpt lat="41.485016561316854" lon="-8.20380883819861"><ele>430.99999999999994</ele><time>2026-04-19T11:29:27Z</time></trkpt><trkpt lat="41.48500364915511" lon="-8.203717502244814"><ele>431.0</ele><time>2026-04-19T11:29:31Z</time></trkpt><trkpt lat="41.48498587757073" lon="-8.203633101831958"><ele>431.0</ele><time>2026-04-19T11:30:14Z</time></trkpt><trkpt lat="41.485007247159814" lon="-8.20372488618313"><ele>431.0</ele><time>2026-04-19T11:30:39Z</time></trkpt><trkpt lat="41.48500843772906" lon="-8.20384468136136"><ele>430.99999999999994</ele><time>2026-04-19T11:30:42Z</time></trkpt><trkpt lat="41.48499608002663" lon="-8.203953809790974"><ele>431.0</ele><time>2026-04-19T11:30:44Z</time></trkpt><trkpt lat="41.48499006453213" lon="-8.204069023858128"><ele>430.99999999999994</ele><time>2026-04-19T11:30:46Z</time></trkpt><trkpt lat="41.48499910622765" lon="-8.204172639617013"><ele>431.0</ele><time>2026-04-19T11:30:48Z</time></trkpt><trkpt lat="41.48503813131564" lon="-8.204273849066444"><ele>431.0</ele><time>2026-04-19T11:30:50Z</time></trkpt><trkpt lat="41.48503961946381" lon="-8.20437471105175"><ele>431.0</ele><time>2026-04-19T11:30:52Z</time></trkpt><trkpt lat="41.485058219581674" lon="-8.204461907539724"><ele>430.99999999999994</ele><time>2026-04-19T11:30:55Z</time></trkpt><trkpt lat="41.4850442773554" lon="-8.204553543772288"><ele>431.0</ele><time>2026-04-19T11:30:57Z</time></trkpt><trkpt lat="41.48501847454302" lon="-8.204651832746041"><ele>430.99999999999994</ele><time>2026-04-19T11:31:00Z</time></trkpt><trkpt lat="41.485023138904914" lon="-8.204741729305955"><ele>431.0</ele><time>2026-04-19T11:31:02Z</time></trkpt><trkpt lat="41.48496412096119" lon="-8.204856247905544"><ele>431.0</ele><time>2026-04-19T11:31:06Z</time></trkpt><trkpt lat="41.48488100076135" lon="-8.204867176864296"><ele>431.0</ele><time>2026-04-19T11:31:09Z</time></trkpt><trkpt lat="41.48481938597538" lon="-8.204836558217522"><ele>430.99999999999994</ele><time>2026-04-19T11:31:11Z</time></trkpt><trkpt lat="41.48472849280432" lon="-8.204766636464987"><ele>431.0</ele><time>2026-04-19T11:31:14Z</time></trkpt><trkpt lat="41.48467154216702" lon="-8.204705147502166"><ele>430.99999999999994</ele><time>2026-04-19T11:31:17Z</time></trkpt><trkpt lat="41.48462462295046" lon="-8.204642343524394"><ele>431.0</ele><time>2026-04-19T11:31:19Z</time></trkpt><trkpt lat="41.48458419347764" lon="-8.204577273656792"><ele>431.0</ele><time>2026-04-19T11:31:20Z</time></trkpt><trkpt lat="41.484517730250296" lon="-8.20447490299682"><ele>431.0</ele><time>2026-04-19T11:31:23Z</time></trkpt><trkpt lat="41.48444420548" lon="-8.204519956895385"><ele>430.99999999999994</ele><time>2026-04-19T11:31:28Z</time></trkpt><trkpt lat="41.48446905277547" lon="-8.20462106779306"><ele>431.0</ele><time>2026-04-19T11:31:32Z</time></trkpt><trkpt lat="41.48446268797114" lon="-8.204715320617895"><ele>431.16666666666663</ele><time>2026-04-19T11:31:34Z</time></trkpt><trkpt lat="41.48438938580245" lon="-8.204774649645714"><ele>431.3333333333333</ele><time>2026-04-19T11:31:38Z</time></trkpt><trkpt lat="41.48432890874895" lon="-8.204858299796033"><ele>431.5</ele><time>2026-04-19T11:31:42Z</time></trkpt><trkpt lat="41.48427967297128" lon="-8.204967416334734"><ele>431.66666666666663</ele><time>2026-04-19T11:31:46Z</time></trkpt><trkpt lat="41.48424385047728" lon="-8.205074394236043"><ele>431.8333333333333</ele><time>2026-04-19T11:31:48Z</time></trkpt><trkpt lat="41.48420082238077" lon="-8.205152055066554"><ele>432.0</ele><time>2026-04-19T11:31:51Z</time></trkpt><trkpt lat="41.48413532263942" lon="-8.20520432011852"><ele>431.42857142857144</ele><time>2026-04-19T11:31:54Z</time></trkpt><trkpt lat="41.48404230623531" lon="-8.205207608200753"><ele>430.85714285714283</ele><time>2026-04-19T11:31:56Z</time></trkpt><trkpt lat="41.48398629463588" lon="-8.205275649832323"><ele>430.28571428571433</ele><time>2026-04-19T11:31:59Z</time></trkpt><trkpt lat="41.484015306063476" lon="-8.205352964006027"><ele>429.7142857142857</ele><time>2026-04-19T11:32:04Z</time></trkpt><trkpt lat="41.48395493724268" lon="-8.205377934299982"><ele>429.14285714285717</ele><time>2026-04-19T11:32:10Z</time></trkpt><trkpt lat="41.483883988006646" lon="-8.205366915676198"><ele>428.5714285714286</ele><time>2026-04-19T11:32:15Z</time></trkpt><trkpt lat="41.48382056607269" lon="-8.205381484020064"><ele>428.0</ele><time>2026-04-19T11:32:24Z</time></trkpt><trkpt lat="41.483748747150194" lon="-8.205404914213013"><ele>428.00000000000006</ele><time>2026-04-19T11:32:32Z</time></trkpt><trkpt lat="41.483743577081775" lon="-8.205496184099637"><ele>428.0</ele><time>2026-04-19T11:32:50Z</time></trkpt><trkpt lat="41.483736537440016" lon="-8.205592745570163"><ele>428.0</ele><time>2026-04-19T11:33:05Z</time></trkpt><trkpt lat="41.48373312912267" lon="-8.205501134380022"><ele>428.0</ele><time>2026-04-19T11:34:14.001Z</time></trkpt><trkpt lat="41.483756249899365" lon="-8.2054125991063"><ele>428.0</ele><time>2026-04-19T11:34:26Z</time></trkpt><trkpt lat="41.48381324999952" lon="-8.205364787372547"><ele>428.00000000000006</ele><time>2026-04-19T11:34:32Z</time></trkpt><trkpt lat="41.483880267879385" lon="-8.205355626198994"><ele>428.0</ele><time>2026-04-19T11:34:40Z</time></trkpt><trkpt lat="41.48406380847748" lon="-8.205383744668302"><ele>430.66666666666663</ele><time>2026-04-19T11:34:52Z</time></trkpt><trkpt lat="41.484119210127325" lon="-8.205464145527538"><ele>433.3333333333333</ele><time>2026-04-19T11:34:54Z</time></trkpt><trkpt lat="41.48417220879542" lon="-8.205528612385175"><ele>436.0</ele><time>2026-04-19T11:34:56Z</time></trkpt><trkpt lat="41.484202176232934" lon="-8.205614604525827"><ele>438.66666666666663</ele><time>2026-04-19T11:34:58Z</time></trkpt><trkpt lat="41.48424872868062" lon="-8.20573212067905"><ele>441.3333333333333</ele><time>2026-04-19T11:35:01Z</time></trkpt><trkpt lat="41.48425028209833" lon="-8.20584058345965"><ele>444.0</ele><time>2026-04-19T11:35:03Z</time></trkpt><trkpt lat="41.48426672385584" lon="-8.205943716300471"><ele>445.0</ele><time>2026-04-19T11:35:05Z</time></trkpt><trkpt lat="41.4842784263508" lon="-8.2060375092023"><ele>446.0</ele><time>2026-04-19T11:35:07Z</time></trkpt><trkpt lat="41.48432743617809" lon="-8.206117336216467"><ele>447.0</ele><time>2026-04-19T11:35:09Z</time></trkpt><trkpt lat="41.484417787792374" lon="-8.206131265740378"><ele>448.0</ele><time>2026-04-19T11:35:11Z</time></trkpt><trkpt lat="41.484498156700916" lon="-8.206095033419798"><ele>449.0</ele><time>2026-04-19T11:35:13Z</time></trkpt><trkpt lat="41.484570797357115" lon="-8.206140801777746"><ele>450.0</ele><time>2026-04-19T11:35:15Z</time></trkpt><trkpt lat="41.48464585464372" lon="-8.206236203798175"><ele>452.0</ele><time>2026-04-19T11:35:17Z</time></trkpt><trkpt lat="41.48467958980242" lon="-8.206371620457162"><ele>454.0</ele><time>2026-04-19T11:35:19Z</time></trkpt><trkpt lat="41.48468265349773" lon="-8.206506794267304"><ele>456.0</ele><time>2026-04-19T11:35:21Z</time></trkpt><trkpt lat="41.48469784406064" lon="-8.206618103039133"><ele>458.0</ele><time>2026-04-19T11:35:24Z</time></trkpt><trkpt lat="41.48467123763137" lon="-8.206709183181733"><ele>460.0</ele><time>2026-04-19T11:35:26Z</time></trkpt><trkpt lat="41.48465820240084" lon="-8.206860379869747"><ele>460.6666666666667</ele><time>2026-04-19T11:35:27Z</time></trkpt><trkpt lat="41.484645512187626" lon="-8.206993676955332"><ele>461.33333333333337</ele><time>2026-04-19T11:35:29Z</time></trkpt><trkpt lat="41.484669564662745" lon="-8.20707869347066"><ele>462.0</ele><time>2026-04-19T11:35:32Z</time></trkpt><trkpt lat="41.484684905240265" lon="-8.207160821817364"><ele>462.66666666666663</ele><time>2026-04-19T11:35:34Z</time></trkpt><trkpt lat="41.484716730330675" lon="-8.207247802322623"><ele>463.3333333333333</ele><time>2026-04-19T11:35:36Z</time></trkpt><trkpt lat="41.48475088140649" lon="-8.207350294015804"><ele>464.0</ele><time>2026-04-19T11:35:38Z</time></trkpt><trkpt lat="41.48480220411615" lon="-8.207460050100567"><ele>463.99999999999994</ele><time>2026-04-19T11:35:39Z</time></trkpt><trkpt lat="41.48482707032714" lon="-8.207549486502726"><ele>464.0</ele><time>2026-04-19T11:35:41Z</time></trkpt><trkpt lat="41.484903928152384" lon="-8.207600074918242"><ele>464.0</ele><time>2026-04-19T11:35:43Z</time></trkpt><trkpt lat="41.48496843193802" lon="-8.207637026338315"><ele>464.0</ele><time>2026-04-19T11:35:45Z</time></trkpt><trkpt lat="41.48507591753434" lon="-8.207639643044237"><ele>463.99999999999994</ele><time>2026-04-19T11:35:47Z</time></trkpt><trkpt lat="41.48507170522997" lon="-8.207739293873978"><ele>464.0</ele><time>2026-04-19T11:35:49Z</time></trkpt><trkpt lat="41.48510571540332" lon="-8.207815377681065"><ele>463.99999999999994</ele><time>2026-04-19T11:35:51Z</time></trkpt><trkpt lat="41.48515281606494" lon="-8.20787570308145"><ele>464.0</ele><time>2026-04-19T11:35:54Z</time></trkpt><trkpt lat="41.485195681271556" lon="-8.207952405563546"><ele>464.0</ele><time>2026-04-19T11:35:57Z</time></trkpt><trkpt lat="41.485276982814604" lon="-8.20799364184583"><ele>464.0</ele><time>2026-04-19T11:36:16.001Z</time></trkpt><trkpt lat="41.485346722159" lon="-8.208040000366418"><ele>463.99999999999994</ele><time>2026-04-19T11:36:18.001Z</time></trkpt><trkpt lat="41.48542475428447" lon="-8.208063648700326"><ele>464.0</ele><time>2026-04-19T11:36:21Z</time></trkpt><trkpt lat="41.48549638343928" lon="-8.20800744704852"><ele>465.4</ele><time>2026-04-19T11:36:29Z</time></trkpt><trkpt lat="41.485541561220366" lon="-8.20794396497002"><ele>466.79999999999995</ele><time>2026-04-19T11:36:34Z</time></trkpt><trkpt lat="41.485487818528824" lon="-8.208095126028102"><ele>468.20000000000005</ele><time>2026-04-19T11:36:39Z</time></trkpt><trkpt lat="41.48543158445938" lon="-8.208146017532266"><ele>469.6</ele><time>2026-04-19T11:36:40Z</time></trkpt><trkpt lat="41.48533793238051" lon="-8.20824593761159"><ele>471.0</ele><time>2026-04-19T11:36:42Z</time></trkpt><trkpt lat="41.48526888356272" lon="-8.208375859322466"><ele>471.0</ele><time>2026-04-19T11:36:44Z</time></trkpt><trkpt lat="41.48525465841766" lon="-8.208472469292886"><ele>471.0</ele><time>2026-04-19T11:36:45Z</time></trkpt><trkpt lat="41.48523830282814" lon="-8.208573568891456"><ele>471.0</ele><time>2026-04-19T11:36:46Z</time></trkpt><trkpt lat="41.48521903433793" lon="-8.208677374514561"><ele>471.0</ele><time>2026-04-19T11:36:47Z</time></trkpt><trkpt lat="41.48518721031876" lon="-8.208770911613168"><ele>471.0</ele><time>2026-04-19T11:36:48Z</time></trkpt><trkpt lat="41.485153376420044" lon="-8.208845908370849"><ele>471.0</ele><time>2026-04-19T11:36:49Z</time></trkpt><trkpt lat="41.48508907571614" lon="-8.208947946710413"><ele>474.4</ele><time>2026-04-19T11:36:51Z</time></trkpt><trkpt lat="41.48502055078042" lon="-8.209048908732248"><ele>477.8</ele><time>2026-04-19T11:36:53Z</time></trkpt><trkpt lat="41.484966287292906" lon="-8.209188300893848"><ele>481.19999999999993</ele><time>2026-04-19T11:36:55Z</time></trkpt><trkpt lat="41.48489636773032" lon="-8.209303865450256"><ele>484.59999999999997</ele><time>2026-04-19T11:36:57Z</time></trkpt><trkpt lat="41.4848418183063" lon="-8.209414831976604"><ele>488.0</ele><time>2026-04-19T11:36:59Z</time></trkpt><trkpt lat="41.48479108777485" lon="-8.209474113282827"><ele>487.99999999999994</ele><time>2026-04-19T11:37:00Z</time></trkpt><trkpt lat="41.48474215635629" lon="-8.209541689728173"><ele>488.0</ele><time>2026-04-19T11:37:01Z</time></trkpt><trkpt lat="41.48470184106153" lon="-8.209617426018191"><ele>488.0</ele><time>2026-04-19T11:37:02Z</time></trkpt><trkpt lat="41.484651158697716" lon="-8.209678221934281"><ele>488.0</ele><time>2026-04-19T11:37:03Z</time></trkpt><trkpt lat="41.48456968908073" lon="-8.209728685647244"><ele>487.99999999999994</ele><time>2026-04-19T11:37:04Z</time></trkpt><trkpt lat="41.484497925101394" lon="-8.20983501816687"><ele>488.0</ele><time>2026-04-19T11:37:06Z</time></trkpt><trkpt lat="41.48442535370476" lon="-8.209942958358342"><ele>489.4</ele><time>2026-04-19T11:37:08Z</time></trkpt><trkpt lat="41.484387078955805" lon="-8.210028839319428"><ele>490.79999999999995</ele><time>2026-04-19T11:37:10Z</time></trkpt><trkpt lat="41.48436106260805" lon="-8.21015899344242"><ele>492.2</ele><time>2026-04-19T11:37:12Z</time></trkpt><trkpt lat="41.48432849167109" lon="-8.210286651020306"><ele>493.6</ele><time>2026-04-19T11:37:14Z</time></trkpt><trkpt lat="41.48429806520971" lon="-8.210429307595758"><ele>495.0</ele><time>2026-04-19T11:37:17Z</time></trkpt><trkpt lat="41.484250497979495" lon="-8.210537715279989"><ele>495.0</ele><time>2026-04-19T11:37:19Z</time></trkpt><trkpt lat="41.484174210942335" lon="-8.210563958876808"><ele>495.0</ele><time>2026-04-19T11:37:22Z</time></trkpt><trkpt lat="41.484140665526795" lon="-8.210446173406075"><ele>495.0</ele><time>2026-04-19T11:37:24Z</time></trkpt><trkpt lat="41.48416164824962" lon="-8.210357739150265"><ele>495.0</ele><time>2026-04-19T11:37:25Z</time></trkpt><trkpt lat="41.48418042337816" lon="-8.210262103789923"><ele>495.0</ele><time>2026-04-19T11:37:26Z</time></trkpt><trkpt lat="41.484181363107105" lon="-8.210145318795627"><ele>495.0</ele><time>2026-04-19T11:37:27Z</time></trkpt><trkpt lat="41.48418023021667" lon="-8.21004121107526"><ele>495.0</ele><time>2026-04-19T11:37:28Z</time></trkpt><trkpt lat="41.484170764662" lon="-8.209957920837358"><ele>495.0</ele><time>2026-04-19T11:37:29Z</time></trkpt><trkpt lat="41.484157186157645" lon="-8.209860122117918"><ele>495.0</ele><time>2026-04-19T11:37:30Z</time></trkpt><trkpt lat="41.48412601205144" lon="-8.209760064600587"><ele>495.0</ele><time>2026-04-19T11:37:31Z</time></trkpt><trkpt lat="41.484095022806095" lon="-8.209639327035712"><ele>495.0</ele><time>2026-04-19T11:37:32Z</time></trkpt><trkpt lat="41.48405537390803" lon="-8.209546135042903"><ele>495.0</ele><time>2026-04-19T11:37:33Z</time></trkpt><trkpt lat="41.484018721286276" lon="-8.209451934081418"><ele>492.0</ele><time>2026-04-19T11:37:35Z</time></trkpt><trkpt lat="41.48401030889919" lon="-8.209311396202589"><ele>489.0</ele><time>2026-04-19T11:37:37Z</time></trkpt><trkpt lat="41.483967099924655" lon="-8.20906490846211"><ele>486.0</ele><time>2026-04-19T11:37:42Z</time></trkpt><trkpt lat="41.483948642790835" lon="-8.208925973727634"><ele>483.0</ele><time>2026-04-19T11:37:44Z</time></trkpt><trkpt lat="41.48392906247887" lon="-8.208770389785407"><ele>479.6666666666667</ele><time>2026-04-19T11:37:46Z</time></trkpt><trkpt lat="41.483913579094974" lon="-8.208600807365189"><ele>476.33333333333337</ele><time>2026-04-19T11:37:48Z</time></trkpt><trkpt lat="41.48390269504718" lon="-8.208515119327878"><ele>473.0</ele><time>2026-04-19T11:37:49Z</time></trkpt><trkpt lat="41.48388343501132" lon="-8.20842985026519"><ele>469.6666666666667</ele><time>2026-04-19T11:37:50Z</time></trkpt><trkpt lat="41.483869841687785" lon="-8.208345288335703"><ele>466.33333333333337</ele><time>2026-04-19T11:37:51Z</time></trkpt><trkpt lat="41.48381668897318" lon="-8.20821330252629"><ele>463.0</ele><time>2026-04-19T11:37:53Z</time></trkpt><trkpt lat="41.48376065806427" lon="-8.208091488924099"><ele>459.0</ele><time>2026-04-19T11:37:55Z</time></trkpt><trkpt lat="41.48369900104873" lon="-8.207966574296954"><ele>459.0</ele><time>2026-04-19T11:37:57Z</time></trkpt><trkpt lat="41.483645389890434" lon="-8.207867552766034"><ele>459.0</ele><time>2026-04-19T11:37:59Z</time></trkpt><trkpt lat="41.48358282154121" lon="-8.207801887232971"><ele>459.0</ele><time>2026-04-19T11:38:00.999Z</time></trkpt><trkpt lat="41.48352476055088" lon="-8.207756111775991"><ele>459.0</ele><time>2026-04-19T11:38:03.999Z</time></trkpt></trkseg><trkseg><trkpt lat="41.484146604959236" lon="-8.21685613070628"><ele>543.0</ele><time>2026-04-19T11:43:36.998Z</time></trkpt><trkpt lat="41.484146262067" lon="-8.216982392851278"><ele>543.0</ele><time>2026-04-19T11:43:38.998Z</time></trkpt><trkpt lat="41.48413988078961" lon="-8.217079292069752"><ele>543.0</ele><time>2026-04-19T11:43:41Z</time></trkpt><trkpt lat="41.48416760029535" lon="-8.21715626589846"><ele>543.0</ele><time>2026-04-19T11:43:42Z</time></trkpt><trkpt lat="41.48418691243704" lon="-8.217275999627507"><ele>543.0</ele><time>2026-04-19T11:43:44Z</time></trkpt><trkpt lat="41.48421138587261" lon="-8.217402020924364"><ele>543.0</ele><time>2026-04-19T11:43:46Z</time></trkpt><trkpt lat="41.48414491647822" lon="-8.217501053553525"><ele>542.8333333333334</ele><time>2026-04-19T11:43:48Z</time></trkpt><trkpt lat="41.48412000278373" lon="-8.217615268584538"><ele>542.6666666666666</ele><time>2026-04-19T11:43:50Z</time></trkpt><trkpt lat="41.484050898514845" lon="-8.21764271102472"><ele>542.5</ele><time>2026-04-19T11:43:51Z</time></trkpt><trkpt lat="41.484054217566964" lon="-8.217796000572461"><ele>542.3333333333333</ele><time>2026-04-19T11:43:53Z</time></trkpt><trkpt lat="41.48400117528038" lon="-8.217908499838247"><ele>542.1666666666666</ele><time>2026-04-19T11:43:55Z</time></trkpt><trkpt lat="41.483929924897815" lon="-8.217893184921094"><ele>542.0</ele><time>2026-04-19T11:43:56Z</time></trkpt><trkpt lat="41.483880026638154" lon="-8.217955574110249"><ele>542.0</ele><time>2026-04-19T11:43:58Z</time></trkpt><trkpt lat="41.48382639295758" lon="-8.218010573211256"><ele>542.0</ele><time>2026-04-19T11:44:01Z</time></trkpt><trkpt lat="41.48376249161019" lon="-8.218069545128543"><ele>542.0</ele><time>2026-04-19T11:44:05Z</time></trkpt><trkpt lat="41.48370144766437" lon="-8.218166414221102"><ele>542.0</ele><time>2026-04-19T11:44:08Z</time></trkpt><trkpt lat="41.48362838416234" lon="-8.218253709431327"><ele>542.0</ele><time>2026-04-19T11:44:10Z</time></trkpt><trkpt lat="41.48356520216809" lon="-8.218346954383925"><ele>542.0</ele><time>2026-04-19T11:44:12Z</time></trkpt><trkpt lat="41.4835117025137" lon="-8.218441529878373"><ele>541.6</ele><time>2026-04-19T11:44:14Z</time></trkpt><trkpt lat="41.48348170108414" lon="-8.218538455003547"><ele>541.2</ele><time>2026-04-19T11:44:16Z</time></trkpt><trkpt lat="41.48342334558026" lon="-8.218652128752101"><ele>540.8</ele><time>2026-04-19T11:44:18Z</time></trkpt><trkpt lat="41.48337766715115" lon="-8.218783068210296"><ele>540.4</ele><time>2026-04-19T11:44:20Z</time></trkpt><trkpt lat="41.48333194947383" lon="-8.218878579056272"><ele>540.0</ele><time>2026-04-19T11:44:22Z</time></trkpt><trkpt lat="41.48328593517695" lon="-8.218987090083777"><ele>538.6</ele><time>2026-04-19T11:44:24Z</time></trkpt><trkpt lat="41.48325372650219" lon="-8.219093775440072"><ele>537.2</ele><time>2026-04-19T11:44:26Z</time></trkpt><trkpt lat="41.4832059594493" lon="-8.219194576265107"><ele>535.8</ele><time>2026-04-19T11:44:28Z</time></trkpt><trkpt lat="41.4831408276045" lon="-8.21926475664603"><ele>534.4</ele><time>2026-04-19T11:44:30Z</time></trkpt><trkpt lat="41.48306698843637" lon="-8.219312387775625"><ele>533.0</ele><time>2026-04-19T11:44:33Z</time></trkpt><trkpt lat="41.482977288831684" lon="-8.219399552259375"><ele>533.6</ele><time>2026-04-19T11:44:36Z</time></trkpt><trkpt lat="41.48287050854337" lon="-8.21941455587711"><ele>534.1999999999999</ele><time>2026-04-19T11:44:39Z</time></trkpt><trkpt lat="41.48277656488924" lon="-8.219478019866907"><ele>534.8</ele><time>2026-04-19T11:44:41Z</time></trkpt><trkpt lat="41.48277235517988" lon="-8.219568407740677"><ele>535.4</ele><time>2026-04-19T11:44:44Z</time></trkpt><trkpt lat="41.48268581741351" lon="-8.21959426699234"><ele>536.0</ele><time>2026-04-19T11:44:47Z</time></trkpt><trkpt lat="41.48262696601052" lon="-8.219729614696208"><ele>533.6666666666666</ele><time>2026-04-19T11:44:49Z</time></trkpt><trkpt lat="41.48253292360843" lon="-8.219930065552514"><ele>531.3333333333334</ele><time>2026-04-19T11:44:50Z</time></trkpt><trkpt lat="41.482494347910844" lon="-8.220206939731456"><ele>529.0</ele><time>2026-04-19T11:44:56Z</time></trkpt><trkpt lat="41.482411069788036" lon="-8.220271134275217"><ele>529.0</ele><time>2026-04-19T11:45:00Z</time></trkpt><trkpt lat="41.482338112107385" lon="-8.220206905165327"><ele>529.0</ele><time>2026-04-19T11:45:03Z</time></trkpt><trkpt lat="41.48227168115534" lon="-8.22014373677333"><ele>529.0</ele><time>2026-04-19T11:45:05.999Z</time></trkpt><trkpt lat="41.482172406303555" lon="-8.220142797258724"><ele>529.0</ele><time>2026-04-19T11:45:07.999Z</time></trkpt><trkpt lat="41.48208014738814" lon="-8.220216394706569"><ele>529.0</ele><time>2026-04-19T11:45:11.999Z</time></trkpt><trkpt lat="41.482013395855596" lon="-8.220240062939732"><ele>529.0</ele><time>2026-04-19T11:45:14.999Z</time></trkpt><trkpt lat="41.481947185205414" lon="-8.220197819983179"><ele>530.5</ele><time>2026-04-19T11:45:16.999Z</time></trkpt><trkpt lat="41.481906439520515" lon="-8.220088463892493"><ele>532.0</ele><time>2026-04-19T11:45:19.999Z</time></trkpt><trkpt lat="41.48184320024194" lon="-8.220066154523048"><ele>533.5</ele><time>2026-04-19T11:45:21.999Z</time></trkpt><trkpt lat="41.481772544773705" lon="-8.220035142374714"><ele>535.0</ele><time>2026-04-19T11:45:26.999Z</time></trkpt><trkpt lat="41.4816852252016" lon="-8.219990065758386"><ele>536.5</ele><time>2026-04-19T11:45:28.999Z</time></trkpt><trkpt lat="41.481609064160956" lon="-8.219978050857986"><ele>538.0</ele><time>2026-04-19T11:45:30.999Z</time></trkpt><trkpt lat="41.48155711984066" lon="-8.219904879620623"><ele>538.0</ele><time>2026-04-19T11:45:33.999Z</time></trkpt><trkpt lat="41.48145844289697" lon="-8.2198716540438"><ele>538.0</ele><time>2026-04-19T11:45:40.999Z</time></trkpt><trkpt lat="41.481378445474306" lon="-8.219844933652972"><ele>538.0</ele><time>2026-04-19T11:45:43.999Z</time></trkpt><trkpt lat="41.481308525008394" lon="-8.219795339055535"><ele>538.0</ele><time>2026-04-19T11:45:47Z</time></trkpt><trkpt lat="41.481245777809875" lon="-8.21974532322828"><ele>538.0</ele><time>2026-04-19T11:45:50Z</time></trkpt><trkpt lat="41.48115359929583" lon="-8.219676011347506"><ele>538.0</ele><time>2026-04-19T11:45:57Z</time></trkpt><trkpt lat="41.481106666519615" lon="-8.219618877318608"><ele>539.5</ele><time>2026-04-19T11:46:01Z</time></trkpt><trkpt lat="41.48103074422919" lon="-8.219553581323112"><ele>541.0</ele><time>2026-04-19T11:46:05Z</time></trkpt><trkpt lat="41.480963498531715" lon="-8.219506102700313"><ele>542.5</ele><time>2026-04-19T11:46:09Z</time></trkpt><trkpt lat="41.48089786306363" lon="-8.219457315293406"><ele>544.0</ele><time>2026-04-19T11:46:11Z</time></trkpt><trkpt lat="41.48083301756936" lon="-8.219432268375499"><ele>545.5</ele><time>2026-04-19T11:46:20Z</time></trkpt><trkpt lat="41.48076724217463" lon="-8.219402583362198"><ele>547.0</ele><time>2026-04-19T11:46:23Z</time></trkpt><trkpt lat="41.480688967001456" lon="-8.219332657424951"><ele>547.0</ele><time>2026-04-19T11:46:26Z</time></trkpt><trkpt lat="41.48063658635668" lon="-8.219264110650421"><ele>547.0</ele><time>2026-04-19T11:46:28Z</time></trkpt><trkpt lat="41.48058841507427" lon="-8.219206650476803"><ele>547.0</ele><time>2026-04-19T11:46:30Z</time></trkpt><trkpt lat="41.48049528226332" lon="-8.219169601552183"><ele>547.0</ele><time>2026-04-19T11:46:38Z</time></trkpt><trkpt lat="41.48043425559331" lon="-8.219148681175767"><ele>547.0</ele><time>2026-04-19T11:46:40Z</time></trkpt><trkpt lat="41.480372881512906" lon="-8.219127699873914"><ele>547.0</ele><time>2026-04-19T11:46:44Z</time></trkpt><trkpt lat="41.48034703630775" lon="-8.21901960201464"><ele>547.0</ele><time>2026-04-19T11:46:48Z</time></trkpt><trkpt lat="41.480297222121706" lon="-8.218953912214193"><ele>547.8333333333334</ele><time>2026-04-19T11:46:51Z</time></trkpt><trkpt lat="41.48028279689119" lon="-8.21886908111947"><ele>548.6666666666667</ele><time>2026-04-19T11:46:54Z</time></trkpt><trkpt lat="41.480199251538316" lon="-8.218827585175973"><ele>549.5</ele><time>2026-04-19T11:46:57.999Z</time></trkpt><trkpt lat="41.480121194174316" lon="-8.218797393205586"><ele>550.3333333333334</ele><time>2026-04-19T11:47:00.999Z</time></trkpt><trkpt lat="41.48003221154558" lon="-8.21876312271421"><ele>551.1666666666666</ele><time>2026-04-19T11:47:03.999Z</time></trkpt><trkpt lat="41.47999700309812" lon="-8.218684636700882"><ele>552.0</ele><time>2026-04-19T11:47:07.999Z</time></trkpt><trkpt lat="41.479933849481846" lon="-8.218599885269215"><ele>552.0</ele><time>2026-04-19T11:47:10.999Z</time></trkpt><trkpt lat="41.479860993119274" lon="-8.218526416042723"><ele>552.0</ele><time>2026-04-19T11:47:12.999Z</time></trkpt><trkpt lat="41.47979790809395" lon="-8.218455111975663"><ele>552.0</ele><time>2026-04-19T11:47:14.999Z</time></trkpt><trkpt lat="41.47973011316537" lon="-8.218433639542662"><ele>552.0</ele><time>2026-04-19T11:47:16.999Z</time></trkpt><trkpt lat="41.479663780421625" lon="-8.21838279399247"><ele>552.0</ele><time>2026-04-19T11:47:19.999Z</time></trkpt><trkpt lat="41.479579414504485" lon="-8.218323750054115"><ele>552.0</ele><time>2026-04-19T11:47:21.999Z</time></trkpt><trkpt lat="41.47950360437926" lon="-8.21826444993114"><ele>552.3333333333334</ele><time>2026-04-19T11:47:23.999Z</time></trkpt><trkpt lat="41.47946915328311" lon="-8.218180811952637"><ele>552.6666666666666</ele><time>2026-04-19T11:47:24.999Z</time></trkpt><trkpt lat="41.479407215575335" lon="-8.218077016415172"><ele>553.0</ele><time>2026-04-19T11:47:26.999Z</time></trkpt><trkpt lat="41.479369437208454" lon="-8.217999633008827"><ele>553.3333333333333</ele><time>2026-04-19T11:47:28.999Z</time></trkpt><trkpt lat="41.47934186260203" lon="-8.217889168085893"><ele>553.6666666666666</ele><time>2026-04-19T11:47:31.999Z</time></trkpt><trkpt lat="41.47927823583959" lon="-8.217821191582432"><ele>554.0</ele><time>2026-04-19T11:47:34.999Z</time></trkpt><trkpt lat="41.47921049863718" lon="-8.217859680529376"><ele>554.6</ele><time>2026-04-19T11:47:36.999Z</time></trkpt><trkpt lat="41.4790973158641" lon="-8.217933854705066"><ele>555.2</ele><time>2026-04-19T11:47:38.999Z</time></trkpt><trkpt lat="41.47898711180254" lon="-8.21800227626604"><ele>555.8000000000001</ele><time>2026-04-19T11:47:40.999Z</time></trkpt><trkpt lat="41.478930341766066" lon="-8.21803864258849"><ele>556.4</ele><time>2026-04-19T11:47:41.999Z</time></trkpt><trkpt lat="41.47887802943061" lon="-8.21808573202295"><ele>557.0</ele><time>2026-04-19T11:47:42.999Z</time></trkpt><trkpt lat="41.47880465637882" lon="-8.218150219891655"><ele>557.6</ele><time>2026-04-19T11:47:43.999Z</time></trkpt><trkpt lat="41.4787218595821" lon="-8.218219558530901"><ele>558.2</ele><time>2026-04-19T11:47:44.999Z</time></trkpt><trkpt lat="41.478621445939666" lon="-8.21828954792375"><ele>558.8</ele><time>2026-04-19T11:47:45.999Z</time></trkpt><trkpt lat="41.47855618676378" lon="-8.218345389282154"><ele>559.4</ele><time>2026-04-19T11:47:46.999Z</time></trkpt><trkpt lat="41.478476549818026" lon="-8.21842411766752"><ele>560.0</ele><time>2026-04-19T11:47:47.999Z</time></trkpt><trkpt lat="41.47839910009197" lon="-8.21846846758965"><ele>560.0</ele><time>2026-04-19T11:47:48.999Z</time></trkpt><trkpt lat="41.47830261037722" lon="-8.21855531520002"><ele>560.0</ele><time>2026-04-19T11:47:49.999Z</time></trkpt><trkpt lat="41.47824649515893" lon="-8.218612697256479"><ele>560.0</ele><time>2026-04-19T11:47:50.999Z</time></trkpt><trkpt lat="41.47816866335683" lon="-8.21870266207016"><ele>560.0</ele><time>2026-04-19T11:47:53Z</time></trkpt><trkpt lat="41.47810780571525" lon="-8.218788838600695"><ele>560.0</ele><time>2026-04-19T11:47:55Z</time></trkpt><trkpt lat="41.47810254615661" lon="-8.218891019693297"><ele>560.0</ele><time>2026-04-19T11:47:59Z</time></trkpt><trkpt lat="41.47808799611115" lon="-8.218759334189043"><ele>560.0</ele><time>2026-04-19T11:48:01Z</time></trkpt><trkpt lat="41.47816260622205" lon="-8.218723496657013"><ele>560.0</ele><time>2026-04-19T11:48:02Z</time></trkpt><trkpt lat="41.4782506819341" lon="-8.218683061530209"><ele>560.0</ele><time>2026-04-19T11:48:05Z</time></trkpt><trkpt lat="41.47836070960087" lon="-8.21858022307906"><ele>560.0</ele><time>2026-04-19T11:48:07Z</time></trkpt><trkpt lat="41.4784533437805" lon="-8.218464534296364"><ele>560.0</ele><time>2026-04-19T11:48:08Z</time></trkpt><trkpt lat="41.47855988863274" lon="-8.218328688366174"><ele>560.0</ele><time>2026-04-19T11:48:10Z</time></trkpt><trkpt lat="41.47861898449423" lon="-8.218248908899563"><ele>560.0</ele><time>2026-04-19T11:48:12Z</time></trkpt><trkpt lat="41.47868768380556" lon="-8.218147388863057"><ele>560.0</ele><time>2026-04-19T11:48:14Z</time></trkpt><trkpt lat="41.478743795736875" lon="-8.21805278230377"><ele>560.0</ele><time>2026-04-19T11:48:15Z</time></trkpt><trkpt lat="41.47879843245203" lon="-8.217962953531117"><ele>559.5</ele><time>2026-04-19T11:48:17Z</time></trkpt><trkpt lat="41.478841555170646" lon="-8.217893190698389"><ele>559.0</ele><time>2026-04-19T11:48:18Z</time></trkpt><trkpt lat="41.47889465202618" lon="-8.217823109929606"><ele>558.5</ele><time>2026-04-19T11:48:19Z</time></trkpt><trkpt lat="41.47891869486786" lon="-8.217710307687597"><ele>558.0</ele><time>2026-04-19T11:48:23Z</time></trkpt><trkpt lat="41.4789564232757" lon="-8.217634270574473"><ele>557.5</ele><time>2026-04-19T11:48:24Z</time></trkpt><trkpt lat="41.4790227352014" lon="-8.217537027098551"><ele>557.0</ele><time>2026-04-19T11:48:25Z</time></trkpt><trkpt lat="41.47910186878007" lon="-8.217464293100013"><ele>557.0</ele><time>2026-04-19T11:48:26Z</time></trkpt><trkpt lat="41.479166736779916" lon="-8.217381006520457"><ele>557.0</ele><time>2026-04-19T11:48:27Z</time></trkpt><trkpt lat="41.47923462528683" lon="-8.217326343934756"><ele>557.0</ele><time>2026-04-19T11:48:28Z</time></trkpt><trkpt lat="41.47928348319692" lon="-8.217265426837958"><ele>557.0</ele><time>2026-04-19T11:48:29Z</time></trkpt><trkpt lat="41.47934513078236" lon="-8.217175102222274"><ele>557.0</ele><time>2026-04-19T11:48:31Z</time></trkpt><trkpt lat="41.479437134987286" lon="-8.217085303463833"><ele>557.0</ele><time>2026-04-19T11:48:33Z</time></trkpt><trkpt lat="41.479535049856466" lon="-8.216976172677553"><ele>557.0</ele><time>2026-04-19T11:48:35Z</time></trkpt><trkpt lat="41.4795614457103" lon="-8.216899151218383"><ele>557.0</ele><time>2026-04-19T11:48:36Z</time></trkpt><trkpt lat="41.47960513165489" lon="-8.216776448139154"><ele>557.0</ele><time>2026-04-19T11:48:38Z</time></trkpt><trkpt lat="41.47966957751818" lon="-8.216646719776964"><ele>557.0</ele><time>2026-04-19T11:48:40Z</time></trkpt><trkpt lat="41.47975000022539" lon="-8.216505051247013"><ele>557.0</ele><time>2026-04-19T11:48:42Z</time></trkpt><trkpt lat="41.47980464017192" lon="-8.216350057940502"><ele>556.5</ele><time>2026-04-19T11:48:44Z</time></trkpt><trkpt lat="41.47985928566718" lon="-8.216271991651604"><ele>556.0</ele><time>2026-04-19T11:48:45Z</time></trkpt><trkpt lat="41.4799069566961" lon="-8.216205908111018"><ele>555.5</ele><time>2026-04-19T11:48:46Z</time></trkpt><trkpt lat="41.479974467957106" lon="-8.216131420591598"><ele>555.0</ele><time>2026-04-19T11:48:48Z</time></trkpt><trkpt lat="41.4800283307228" lon="-8.216064396889788"><ele>554.5</ele><time>2026-04-19T11:48:49Z</time></trkpt><trkpt lat="41.48008419035617" lon="-8.215989298588104"><ele>554.0</ele><time>2026-04-19T11:48:50Z</time></trkpt><trkpt lat="41.480166262055164" lon="-8.21589044566032"><ele>554.0</ele><time>2026-04-19T11:48:52Z</time></trkpt><trkpt lat="41.480240873075644" lon="-8.215839098810767"><ele>554.0</ele><time>2026-04-19T11:48:54Z</time></trkpt><trkpt lat="41.480320304005645" lon="-8.215814456694549"><ele>554.0</ele><time>2026-04-19T11:48:57Z</time></trkpt><trkpt lat="41.480355439963645" lon="-8.215738428564602"><ele>554.0</ele><time>2026-04-19T11:48:58Z</time></trkpt><trkpt lat="41.48042927355022" lon="-8.215663534167582"><ele>554.0</ele><time>2026-04-19T11:49:00Z</time></trkpt><trkpt lat="41.48052403589957" lon="-8.215553789739875"><ele>553.6666666666666</ele><time>2026-04-19T11:49:02Z</time></trkpt><trkpt lat="41.48057682088466" lon="-8.2154806906888"><ele>553.3333333333333</ele><time>2026-04-19T11:49:03Z</time></trkpt><trkpt lat="41.48061567748487" lon="-8.21541375807911"><ele>553.0</ele><time>2026-04-19T11:49:04Z</time></trkpt><trkpt lat="41.48067901937872" lon="-8.215277159875932"><ele>552.6666666666666</ele><time>2026-04-19T11:49:06Z</time></trkpt><trkpt lat="41.480724011337585" lon="-8.215206067539171"><ele>552.3333333333334</ele><time>2026-04-19T11:49:07Z</time></trkpt><trkpt lat="41.480730720696734" lon="-8.215062117480409"><ele>552.0</ele><time>2026-04-19T11:49:09Z</time></trkpt><trkpt lat="41.48073610214203" lon="-8.214971764233434"><ele>552.0</ele><time>2026-04-19T11:49:10Z</time></trkpt><trkpt lat="41.48077347732829" lon="-8.214823997271084"><ele>552.0</ele><time>2026-04-19T11:49:12Z</time></trkpt><trkpt lat="41.48087241610265" lon="-8.214773538878784"><ele>552.0</ele><time>2026-04-19T11:49:14Z</time></trkpt><trkpt lat="41.480928387594275" lon="-8.214667417233827"><ele>552.0</ele><time>2026-04-19T11:49:16Z</time></trkpt><trkpt lat="41.4810005528883" lon="-8.214541985862915"><ele>552.0</ele><time>2026-04-19T11:49:18Z</time></trkpt><trkpt lat="41.48104049768234" lon="-8.214463080315811"><ele>552.2</ele><time>2026-04-19T11:49:19Z</time></trkpt><trkpt lat="41.48115893720916" lon="-8.214384362701226"><ele>552.4000000000001</ele><time>2026-04-19T11:49:21Z</time></trkpt><trkpt lat="41.481214057464946" lon="-8.214305557620865"><ele>552.5999999999999</ele><time>2026-04-19T11:49:22Z</time></trkpt><trkpt lat="41.48128032954623" lon="-8.214188255344343"><ele>552.8</ele><time>2026-04-19T11:49:24Z</time></trkpt><trkpt lat="41.48132441545608" lon="-8.214105386177724"><ele>553.0</ele><time>2026-04-19T11:49:26Z</time></trkpt><trkpt lat="41.48136355477043" lon="-8.21400279976616"><ele>550.5</ele><time>2026-04-19T11:49:28Z</time></trkpt><trkpt lat="41.481426937991074" lon="-8.213900926040985"><ele>548.0</ele><time>2026-04-19T11:49:30Z</time></trkpt><trkpt lat="41.48147741674699" lon="-8.21383813018905"><ele>545.5</ele><time>2026-04-19T11:49:31Z</time></trkpt><trkpt lat="41.48152375593516" lon="-8.213776435218508"><ele>543.0</ele><time>2026-04-19T11:49:32Z</time></trkpt><trkpt lat="41.481576365867035" lon="-8.21368485557776"><ele>540.5</ele><time>2026-04-19T11:49:33Z</time></trkpt><trkpt lat="41.48163565030821" lon="-8.213584340806209"><ele>538.0</ele><time>2026-04-19T11:49:34Z</time></trkpt><trkpt lat="41.48168543500172" lon="-8.213496836683815"><ele>538.0</ele><time>2026-04-19T11:49:35Z</time></trkpt><trkpt lat="41.48173122265405" lon="-8.213385279512533"><ele>538.0</ele><time>2026-04-19T11:49:36Z</time></trkpt><trkpt lat="41.48176725548032" lon="-8.213300918160254"><ele>538.0</ele><time>2026-04-19T11:49:37Z</time></trkpt><trkpt lat="41.48182060606142" lon="-8.213156791714603"><ele>538.0</ele><time>2026-04-19T11:49:39Z</time></trkpt><trkpt lat="41.48186556502636" lon="-8.213000277764186"><ele>538.0</ele><time>2026-04-19T11:49:40.999Z</time></trkpt><trkpt lat="41.48191807634406" lon="-8.212857283233811"><ele>537.5714285714286</ele><time>2026-04-19T11:49:42.999Z</time></trkpt><trkpt lat="41.48193468324933" lon="-8.212760720529669"><ele>537.1428571428572</ele><time>2026-04-19T11:49:44.999Z</time></trkpt><trkpt lat="41.48196555259955" lon="-8.21267900312054"><ele>536.7142857142858</ele><time>2026-04-19T11:49:47.999Z</time></trkpt><trkpt lat="41.48202375518875" lon="-8.212631997570952"><ele>536.2857142857143</ele><time>2026-04-19T11:49:49.999Z</time></trkpt><trkpt lat="41.48207027735911" lon="-8.21256267181396"><ele>535.8571428571429</ele><time>2026-04-19T11:49:51.999Z</time></trkpt><trkpt lat="41.48210307550458" lon="-8.212488168161828"><ele>535.4285714285714</ele><time>2026-04-19T11:49:53.999Z</time></trkpt><trkpt lat="41.482149530102866" lon="-8.212371815836363"><ele>535.0</ele><time>2026-04-19T11:49:55.999Z</time></trkpt><trkpt lat="41.48217699234549" lon="-8.212259650777389"><ele>535.0</ele><time>2026-04-19T11:49:59Z</time></trkpt><trkpt lat="41.48216350531891" lon="-8.212161599398781"><ele>535.0</ele><time>2026-04-19T11:50:02Z</time></trkpt><trkpt lat="41.48210174244844" lon="-8.212139470365383"><ele>535.0</ele><time>2026-04-19T11:50:06Z</time></trkpt><trkpt lat="41.48203268492825" lon="-8.212197924312024"><ele>535.0</ele><time>2026-04-19T11:52:43Z</time></trkpt><trkpt lat="41.481982786352745" lon="-8.212102999355823"><ele>535.0</ele><time>2026-04-19T11:52:56Z</time></trkpt><trkpt lat="41.4819966897668" lon="-8.212012344043789"><ele>535.0</ele><time>2026-04-19T11:53:05Z</time></trkpt><trkpt lat="41.48200832946745" lon="-8.21192821676368"><ele>535.0</ele><time>2026-04-19T11:53:09Z</time></trkpt><trkpt lat="41.48201312601894" lon="-8.212039367557825"><ele>533.0</ele><time>2026-04-19T11:53:13Z</time></trkpt></trkseg></trk></gpx>